Time;durP1;ratioP1;P1;durP2;ratioP2;P2;SDS_P1;SDS_P2;PMS_P1;PMS_P2;Temp;Humidity;BMP_temperature;BMP_pressure;BME280_temperature;BME280_humidity;BME280_pressure;Samples;Min_cycle;Max_cycle;Signal;HPM_P1;HPM_P2
2022/03/20 00:00:54;;;;;;;;;;;7.40;69.80;;;;;;2075891;28;20544;-68
2022/03/20 00:01:54;;;;;;;;;;;7.40;69.50;;;;;;2076841;28;20491;-68
2022/03/20 00:02:55;;;;;;;;;;;7.40;69.70;;;;;;2078083;28;19948;-68
2022/03/20 00:03:55;;;;;;;;;;;7.30;69.90;;;;;;2075691;28;19909;-68
2022/03/20 00:04:56;;;;;;;;;;;7.30;69.70;;;;;;2075069;28;20353;-68
2022/03/20 00:05:57;;;;;;;;;;;7.30;69.60;;;;;;2076799;28;19916;-68
2022/03/20 00:06:58;;;;;;;;;;;7.30;69.70;;;;;;2077056;28;20508;-68
2022/03/20 00:07:58;;;;;;;;;;;7.30;70.10;;;;;;2078099;28;20011;-68
2022/03/20 00:08:59;;;;;;;;;;;7.30;70.00;;;;;;2076939;28;19908;-68
2022/03/20 00:10:00;;;;;;;;;;;7.30;69.60;;;;;;2074623;28;20077;-68
2022/03/20 00:11:02;;;;;;;;;;;7.30;70.00;;;;;;2077883;28;19913;-68
2022/03/20 00:12:03;;;;;;;;;;;7.20;69.80;;;;;;2078175;28;20250;-68
2022/03/20 00:13:09;;;;;;;;;;;7.20;69.90;;;;;;2076608;28;19915;-68
2022/03/20 00:14:10;;;;;;;;;;;7.20;70.10;;;;;;2076731;28;19913;-68
2022/03/20 00:15:10;;;;;;;;;;;7.20;70.30;;;;;;2077114;28;19909;-68
2022/03/20 00:16:11;;;;;;;;;;;7.20;69.70;;;;;;2077283;28;19909;-68
2022/03/20 00:17:13;;;;;;;;;;;7.10;70.20;;;;;;2078401;28;19909;-68
2022/03/20 00:18:14;;;;;;;;;;;7.10;69.80;;;;;;2078329;28;19932;-68
2022/03/20 00:19:15;;;;;;;;;;;7.10;69.60;;;;;;2076292;28;20626;-68
2022/03/20 00:20:16;;;;;;;;;;;7.10;69.70;;;;;;2078135;28;19905;-68
2022/03/20 00:21:16;;;;;;;;;;;7.10;69.60;;;;;;2077391;28;20284;-68
2022/03/20 00:22:17;;;;;;;;;;;7.10;69.70;;;;;;2079031;28;19905;-68
2022/03/20 00:23:18;;;;;;;;;;;7.10;69.80;;;;;;2075865;28;19905;-68
2022/03/20 00:24:18;;;;;;;;;;;7.10;70.00;;;;;;2074720;28;19995;-68
2022/03/20 00:25:19;;;;;;;;;;;7.00;69.60;;;;;;2074690;28;20006;-68
2022/03/20 00:26:19;;;;;;;;;;;7.00;69.40;;;;;;2072971;28;19983;-68
2022/03/20 00:27:20;;;;;;;;;;;7.00;69.40;;;;;;2076855;28;19911;-68
2022/03/20 00:28:23;;;;;;;;;;;7.00;69.60;;;;;;2077463;28;19913;-68
2022/03/20 00:29:27;;;;;;;;;;;7.00;69.30;;;;;;2076611;28;19963;-68
2022/03/20 00:30:28;;;;;;;;;;;7.00;69.60;;;;;;2076251;28;19924;-68
2022/03/20 00:31:32;;;;;;;;;;;7.00;69.30;;;;;;2078434;28;19955;-68
2022/03/20 00:32:32;;;;;;;;;;;7.00;69.10;;;;;;2078057;28;19995;-68
2022/03/20 00:33:33;;;;;;;;;;;7.00;69.10;;;;;;2075665;28;19917;-68
2022/03/20 00:34:33;;;;;;;;;;;7.00;69.30;;;;;;2075932;28;19909;-68
2022/03/20 00:35:34;;;;;;;;;;;6.90;69.00;;;;;;2076091;28;20006;-68
2022/03/20 00:36:36;;;;;;;;;;;6.90;69.00;;;;;;2081324;28;19909;-68
2022/03/20 00:37:36;;;;;;;;;;;6.90;69.10;;;;;;2078633;28;19909;-68
2022/03/20 00:38:37;;;;;;;;;;;6.90;68.80;;;;;;2075955;28;19905;-68
2022/03/20 00:39:37;;;;;;;;;;;6.90;68.50;;;;;;2078777;28;20411;-68
2022/03/20 00:40:38;;;;;;;;;;;6.90;68.80;;;;;;2076149;28;19917;-68
2022/03/20 00:41:38;;;;;;;;;;;6.90;68.50;;;;;;2076899;28;19953;-68
2022/03/20 00:42:39;;;;;;;;;;;6.90;68.40;;;;;;2077025;28;19996;-68
2022/03/20 00:43:39;;;;;;;;;;;6.90;68.30;;;;;;2078895;28;19955;-68
2022/03/20 00:44:40;;;;;;;;;;;6.80;68.40;;;;;;2078683;28;20245;-68
2022/03/20 00:45:40;;;;;;;;;;;6.90;68.60;;;;;;2078395;28;19917;-68
2022/03/20 00:46:41;;;;;;;;;;;6.80;68.40;;;;;;2077507;28;20332;-68
2022/03/20 00:47:41;;;;;;;;;;;6.80;68.30;;;;;;2076818;28;19913;-68
2022/03/20 00:48:41;;;;;;;;;;;6.80;67.80;;;;;;2076547;28;19925;-68
2022/03/20 00:49:42;;;;;;;;;;;6.80;68.00;;;;;;2076572;28;19960;-68
2022/03/20 00:50:42;;;;;;;;;;;6.80;68.10;;;;;;2076146;28;19980;-68
2022/03/20 00:51:43;;;;;;;;;;;6.80;68.40;;;;;;2074254;28;19971;-68
2022/03/20 00:52:43;;;;;;;;;;;6.70;68.50;;;;;;2077816;28;19905;-68
2022/03/20 00:53:44;;;;;;;;;;;6.70;68.30;;;;;;2079117;28;19935;-68
2022/03/20 00:54:44;;;;;;;;;;;6.70;68.50;;;;;;2077777;28;20348;-68
2022/03/20 00:55:45;;;;;;;;;;;6.70;68.40;;;;;;2079381;28;19905;-68
2022/03/20 00:56:46;;;;;;;;;;;6.70;68.00;;;;;;2075840;28;19945;-68
2022/03/20 00:57:46;;;;;;;;;;;6.70;68.70;;;;;;2076907;28;20257;-68
2022/03/20 00:58:47;;;;;;;;;;;6.70;68.20;;;;;;2075548;28;19952;-68
2022/03/20 00:59:47;;;;;;;;;;;6.70;67.70;;;;;;2078105;28;19992;-68
2022/03/20 01:00:50;;;;;;;;;;;6.70;68.00;;;;;;2077854;28;19952;-68
2022/03/20 01:01:51;;;;;;;;;;;6.60;68.20;;;;;;2078888;28;19935;-68
2022/03/20 01:02:51;;;;;;;;;;;6.60;67.90;;;;;;2077453;28;19916;-68
2022/03/20 01:03:52;;;;;;;;;;;6.60;68.10;;;;;;2076021;28;19928;-68
2022/03/20 01:04:52;;;;;;;;;;;6.60;68.20;;;;;;2078936;28;19905;-68
2022/03/20 01:05:53;;;;;;;;;;;6.60;68.00;;;;;;2077669;28;19959;-68
2022/03/20 01:07:01;;;;;;;;;;;6.60;67.90;;;;;;2075719;28;19909;-68
2022/03/20 01:08:02;;;;;;;;;;;6.60;68.10;;;;;;2077340;28;19923;-68
2022/03/20 01:09:03;;;;;;;;;;;6.60;68.20;;;;;;2078088;28;19923;-68
2022/03/20 01:10:05;;;;;;;;;;;6.60;68.30;;;;;;2078118;28;19904;-68
2022/03/20 01:11:06;;;;;;;;;;;6.60;68.20;;;;;;2077910;28;19906;-68
2022/03/20 01:12:08;;;;;;;;;;;6.50;68.30;;;;;;2079041;28;19915;-68
2022/03/20 01:13:08;;;;;;;;;;;6.50;68.10;;;;;;2075961;28;19917;-68
2022/03/20 01:14:11;;;;;;;;;;;6.50;68.20;;;;;;2077820;28;20003;-68
2022/03/20 01:15:12;;;;;;;;;;;6.50;68.20;;;;;;2077787;28;19905;-68
2022/03/20 01:16:13;;;;;;;;;;;6.50;68.10;;;;;;2076612;28;19920;-68
2022/03/20 01:17:13;;;;;;;;;;;6.50;68.40;;;;;;2077082;28;19909;-68
2022/03/20 01:18:14;;;;;;;;;;;6.50;68.20;;;;;;2077060;28;20373;-68
2022/03/20 01:19:15;;;;;;;;;;;6.50;68.40;;;;;;2079592;28;19955;-68
2022/03/20 01:20:16;;;;;;;;;;;6.50;68.20;;;;;;2075084;28;19912;-68
2022/03/20 01:21:16;;;;;;;;;;;6.50;68.30;;;;;;2077691;28;19912;-68
2022/03/20 01:22:17;;;;;;;;;;;6.50;68.20;;;;;;2075642;28;20253;-68
2022/03/20 01:23:19;;;;;;;;;;;6.50;68.60;;;;;;2078629;28;19904;-68
2022/03/20 01:24:21;;;;;;;;;;;6.40;68.30;;;;;;2075876;28;19916;-68
2022/03/20 01:25:21;;;;;;;;;;;6.40;68.50;;;;;;2074003;28;19916;-68
2022/03/20 01:26:23;;;;;;;;;;;6.40;68.70;;;;;;2077760;28;19909;-68
2022/03/20 01:27:23;;;;;;;;;;;6.40;69.00;;;;;;2078719;28;20677;-68
2022/03/20 01:28:24;;;;;;;;;;;6.40;68.70;;;;;;2076948;28;20288;-68
2022/03/20 01:29:24;;;;;;;;;;;6.40;68.90;;;;;;2075317;28;19905;-68
2022/03/20 01:30:25;;;;;;;;;;;6.40;69.00;;;;;;2077697;28;19905;-68
2022/03/20 01:31:25;;;;;;;;;;;6.30;69.20;;;;;;2078650;28;19909;-68
2022/03/20 01:32:28;;;;;;;;;;;6.30;68.90;;;;;;2078093;28;19948;-68
2022/03/20 01:33:28;;;;;;;;;;;6.30;69.10;;;;;;2074775;28;19924;-68
2022/03/20 01:34:28;;;;;;;;;;;6.30;69.10;;;;;;2077276;28;19915;-68
2022/03/20 01:35:29;;;;;;;;;;;6.30;69.30;;;;;;2076968;28;19991;-67
2022/03/20 01:36:29;;;;;;;;;;;6.30;69.10;;;;;;2080116;28;20419;-67
2022/03/20 01:37:30;;;;;;;;;;;6.30;68.70;;;;;;2080542;28;19909;-67
2022/03/20 01:38:30;;;;;;;;;;;6.30;68.50;;;;;;2077947;28;20601;-67
2022/03/20 01:39:31;;;;;;;;;;;6.30;69.10;;;;;;2079963;28;19909;-67
2022/03/20 01:40:32;;;;;;;;;;;6.30;69.10;;;;;;2080018;28;19917;-67
2022/03/20 01:41:32;;;;;;;;;;;6.30;69.10;;;;;;2080950;28;20360;-67
2022/03/20 01:42:33;;;;;;;;;;;6.20;69.00;;;;;;2077137;28;19936;-67
2022/03/20 01:43:33;;;;;;;;;;;6.20;69.20;;;;;;2079672;28;20007;-67
2022/03/20 01:44:34;;;;;;;;;;;6.20;69.30;;;;;;2081364;28;19913;-68
2022/03/20 01:45:35;;;;;;;;;;;6.20;69.60;;;;;;2076313;28;19968;-68
2022/03/20 01:46:35;;;;;;;;;;;6.20;69.50;;;;;;2081672;28;19909;-68
2022/03/20 01:47:36;;;;;;;;;;;6.20;69.40;;;;;;2080017;28;19952;-68
2022/03/20 01:48:36;;;;;;;;;;;6.20;69.30;;;;;;2075630;28;19931;-68
2022/03/20 01:49:36;;;;;;;;;;;6.20;69.40;;;;;;2078437;28;19912;-68
2022/03/20 01:50:38;;;;;;;;;;;6.20;69.40;;;;;;2078113;28;19909;-67
2022/03/20 01:52:58;;;;;;;;;;;6.10;69.20;;;;;;2077441;28;19909;-67
2022/03/20 01:53:59;;;;;;;;;;;6.10;69.10;;;;;;2080252;28;19910;-67
2022/03/20 01:55:01;;;;;;;;;;;6.10;69.10;;;;;;2082289;28;20012;-67
2022/03/20 01:56:01;;;;;;;;;;;6.20;69.20;;;;;;2076990;28;19906;-67
2022/03/20 01:57:02;;;;;;;;;;;6.20;68.90;;;;;;2079275;28;19998;-67
2022/03/20 01:58:02;;;;;;;;;;;6.20;69.00;;;;;;2080794;28;19988;-67
2022/03/20 01:59:03;;;;;;;;;;;6.10;69.10;;;;;;2081423;28;19909;-67
2022/03/20 02:00:04;;;;;;;;;;;6.10;69.10;;;;;;2081806;28;20370;-67
2022/03/20 02:01:05;;;;;;;;;;;6.10;69.20;;;;;;2079207;28;19905;-67
2022/03/20 02:02:06;;;;;;;;;;;6.10;69.00;;;;;;2080500;28;19998;-67
2022/03/20 02:03:06;;;;;;;;;;;6.10;68.50;;;;;;2079791;28;19909;-67
2022/03/20 02:04:06;;;;;;;;;;;6.10;68.40;;;;;;2080746;28;20422;-67
2022/03/20 02:05:10;;;;;;;;;;;6.10;68.40;;;;;;2081590;28;19920;-67
2022/03/20 02:06:11;;;;;;;;;;;6.10;68.40;;;;;;2080596;28;19909;-67
2022/03/20 02:07:12;;;;;;;;;;;6.10;68.60;;;;;;2081579;28;19955;-67
2022/03/20 02:08:13;;;;;;;;;;;6.10;68.40;;;;;;2080718;28;20095;-67
2022/03/20 02:09:13;;;;;;;;;;;6.10;67.90;;;;;;2080440;28;19932;-67
2022/03/20 02:10:14;;;;;;;;;;;6.10;68.40;;;;;;2081949;28;19909;-67
2022/03/20 02:11:15;;;;;;;;;;;6.10;68.50;;;;;;2081622;28;19916;-67
2022/03/20 02:12:15;;;;;;;;;;;6.10;68.30;;;;;;2077923;28;19905;-67
2022/03/20 02:13:19;;;;;;;;;;;6.10;68.20;;;;;;2080022;28;19909;-67
2022/03/20 02:14:20;;;;;;;;;;;6.10;68.40;;;;;;2080418;28;20384;-67
2022/03/20 02:15:20;;;;;;;;;;;6.10;68.40;;;;;;2081857;28;20288;-67
2022/03/20 02:16:21;;;;;;;;;;;6.00;68.30;;;;;;2078917;28;19995;-67
2022/03/20 02:17:22;;;;;;;;;;;6.00;68.30;;;;;;2079398;28;19958;-67
2022/03/20 02:18:24;;;;;;;;;;;6.00;68.10;;;;;;2079921;28;19913;-67
2022/03/20 02:19:25;;;;;;;;;;;6.00;68.00;;;;;;2082183;28;19913;-68
2022/03/20 02:20:29;;;;;;;;;;;6.00;67.70;;;;;;2078818;28;20423;-68
2022/03/20 02:21:36;;;;;;;;;;;6.00;67.80;;;;;;2077459;28;20316;-68
2022/03/20 02:22:40;;;;;;;;;;;6.00;67.80;;;;;;2078530;28;19927;-68
2022/03/20 02:23:42;;;;;;;;;;;6.00;67.60;;;;;;2081935;28;19925;-68
2022/03/20 02:24:44;;;;;;;;;;;6.00;67.70;;;;;;2077423;28;20288;-68
2022/03/20 02:25:48;;;;;;;;;;;6.10;67.00;;;;;;2079601;28;19909;-68
2022/03/20 02:26:48;;;;;;;;;;;6.00;67.20;;;;;;2078297;28;19905;-68
2022/03/20 02:27:49;;;;;;;;;;;6.10;67.60;;;;;;2079856;28;19941;-68
2022/03/20 02:28:50;;;;;;;;;;;6.00;67.10;;;;;;2080676;28;19908;-68
2022/03/20 02:30:00;;;;;;;;;;;6.00;66.70;;;;;;2080909;28;19909;-68
2022/03/20 02:31:00;;;;;;;;;;;6.00;67.00;;;;;;2080465;28;19912;-68
2022/03/20 02:32:01;;;;;;;;;;;6.00;66.80;;;;;;2081541;28;19906;-68
2022/03/20 02:33:01;;;;;;;;;;;6.10;66.80;;;;;;2078618;28;19913;-68
2022/03/20 02:34:02;;;;;;;;;;;6.00;66.80;;;;;;2082974;28;20280;-68
2022/03/20 02:35:04;;;;;;;;;;;6.00;66.80;;;;;;2082077;28;19987;-68
2022/03/20 02:36:06;;;;;;;;;;;6.00;66.50;;;;;;2078490;28;19951;-68
2022/03/20 02:37:06;;;;;;;;;;;6.00;66.30;;;;;;2077156;28;19909;-68
2022/03/20 02:38:10;;;;;;;;;;;6.00;66.50;;;;;;2080359;28;20579;-68
2022/03/20 02:39:10;;;;;;;;;;;6.00;66.30;;;;;;2080152;28;19905;-68
2022/03/20 02:40:11;;;;;;;;;;;6.00;65.80;;;;;;2081285;28;19944;-68
2022/03/20 02:41:15;;;;;;;;;;;6.00;65.80;;;;;;2077613;28;19952;-68
2022/03/20 02:42:16;;;;;;;;;;;6.00;65.80;;;;;;2078498;28;19920;-68
2022/03/20 02:43:17;;;;;;;;;;;6.00;65.50;;;;;;2081052;28;19909;-68
2022/03/20 02:44:18;;;;;;;;;;;6.00;65.60;;;;;;2083185;28;21392;-68
2022/03/20 02:45:23;;;;;;;;;;;6.00;65.20;;;;;;2079520;28;19962;-68
2022/03/20 02:46:24;;;;;;;;;;;6.00;65.20;;;;;;2081818;28;20750;-68
2022/03/20 02:47:25;;;;;;;;;;;6.00;65.20;;;;;;2079164;28;19917;-67
2022/03/20 02:48:26;;;;;;;;;;;6.00;64.50;;;;;;2080618;28;20634;-67
2022/03/20 02:49:27;;;;;;;;;;;6.00;64.90;;;;;;2078733;28;19909;-67
2022/03/20 02:50:32;;;;;;;;;;;6.00;64.30;;;;;;2078436;28;19956;-67
2022/03/20 02:51:32;;;;;;;;;;;6.00;64.50;;;;;;2076467;28;19913;-67
2022/03/20 02:52:39;;;;;;;;;;;6.00;64.30;;;;;;2078747;28;19905;-67
2022/03/20 02:53:39;;;;;;;;;;;6.00;64.40;;;;;;2077975;28;19978;-67
2022/03/20 02:54:39;;;;;;;;;;;6.00;64.10;;;;;;2080625;28;19917;-67
2022/03/20 02:55:41;;;;;;;;;;;6.00;64.30;;;;;;2078398;28;19913;-67
2022/03/20 02:56:42;;;;;;;;;;;6.00;63.80;;;;;;2080715;28;19909;-67
2022/03/20 02:57:42;;;;;;;;;;;6.00;63.90;;;;;;2080490;28;20380;-67
2022/03/20 02:58:42;;;;;;;;;;;6.00;63.70;;;;;;2080459;28;19909;-67
2022/03/20 02:59:43;;;;;;;;;;;6.10;63.80;;;;;;2078656;28;19980;-67
2022/03/20 03:00:44;;;;;;;;;;;6.00;63.90;;;;;;2075046;28;19905;-67
2022/03/20 03:01:45;;;;;;;;;;;6.00;63.20;;;;;;2078338;28;19916;-67
2022/03/20 03:02:46;;;;;;;;;;;6.00;63.10;;;;;;2080233;28;20538;-67
2022/03/20 03:03:46;;;;;;;;;;;6.10;63.20;;;;;;2077384;28;19906;-67
2022/03/20 03:04:47;;;;;;;;;;;6.00;62.90;;;;;;2075470;28;19945;-67
2022/03/20 03:05:48;;;;;;;;;;;6.00;63.00;;;;;;2073706;28;19925;-67
2022/03/20 03:06:48;;;;;;;;;;;6.00;63.10;;;;;;2079595;28;19905;-68
2022/03/20 03:11:48;;;;;;;;;;;6.00;62.60;;;;;;2076954;28;19909;-68
2022/03/20 03:12:48;;;;;;;;;;;6.00;62.60;;;;;;2079532;28;19974;-68
2022/03/20 03:13:48;;;;;;;;;;;6.10;62.60;;;;;;2080663;28;20340;-68
2022/03/20 03:16:13;;;;;;;;;;;6.10;62.00;;;;;;2076406;28;19913;-68
2022/03/20 03:17:13;;;;;;;;;;;6.00;61.80;;;;;;2076367;28;19906;-68
2022/03/20 03:18:13;;;;;;;;;;;6.10;61.70;;;;;;2076500;28;20000;-68
2022/03/20 03:19:15;;;;;;;;;;;6.10;61.20;;;;;;2076741;28;20364;-67
2022/03/20 03:20:19;;;;;;;;;;;6.10;61.30;;;;;;2076563;28;20356;-67
2022/03/20 03:21:20;;;;;;;;;;;6.10;61.50;;;;;;2078488;28;19913;-67
2022/03/20 03:22:20;;;;;;;;;;;6.10;61.20;;;;;;2077473;28;19982;-67
2022/03/20 03:23:21;;;;;;;;;;;6.10;60.90;;;;;;2076641;28;19905;-67
2022/03/20 03:24:21;;;;;;;;;;;6.10;61.00;;;;;;2075064;28;19924;-67
2022/03/20 03:25:22;;;;;;;;;;;6.10;61.00;;;;;;2078712;28;19915;-67
2022/03/20 03:26:23;;;;;;;;;;;6.10;60.80;;;;;;2080629;28;19912;-67
2022/03/20 03:27:23;;;;;;;;;;;6.10;60.80;;;;;;2079152;28;19917;-67
2022/03/20 03:28:28;;;;;;;;;;;6.10;60.80;;;;;;2074819;28;20352;-67
2022/03/20 03:29:28;;;;;;;;;;;6.10;61.20;;;;;;2077285;28;19905;-68
2022/03/20 03:30:29;;;;;;;;;;;6.10;60.50;;;;;;2074852;28;19956;-68
2022/03/20 03:31:30;;;;;;;;;;;6.10;60.50;;;;;;2079356;28;19913;-68
2022/03/20 03:32:30;;;;;;;;;;;6.10;60.40;;;;;;2074667;28;20003;-68
2022/03/20 03:33:31;;;;;;;;;;;6.10;60.30;;;;;;2078759;28;19905;-68
2022/03/20 03:35:54;;;;;;;;;;;6.10;60.00;;;;;;2078841;28;19925;-68
2022/03/20 03:36:55;;;;;;;;;;;6.10;60.20;;;;;;2078318;28;19906;-68
2022/03/20 03:37:55;;;;;;;;;;;6.10;60.00;;;;;;2080493;28;20344;-67
2022/03/20 03:38:56;;;;;;;;;;;6.10;60.10;;;;;;2078110;28;19905;-68
2022/03/20 03:39:56;;;;;;;;;;;6.10;60.10;;;;;;2082357;28;20062;-68
2022/03/20 03:40:57;;;;;;;;;;;6.10;59.80;;;;;;2077763;28;20490;-68
2022/03/20 03:41:58;;;;;;;;;;;6.10;59.60;;;;;;2076180;28;20007;-68
2022/03/20 03:42:58;;;;;;;;;;;6.10;59.90;;;;;;2077751;28;19909;-67
2022/03/20 03:43:58;;;;;;;;;;;6.10;59.90;;;;;;2079263;28;20276;-67
2022/03/20 03:45:00;;;;;;;;;;;6.10;59.90;;;;;;2076745;28;19913;-67
2022/03/20 03:46:00;;;;;;;;;;;6.10;59.80;;;;;;2078775;28;19913;-67
2022/03/20 03:47:01;;;;;;;;;;;6.10;59.70;;;;;;2075693;28;19912;-68
2022/03/20 03:48:01;;;;;;;;;;;6.10;59.40;;;;;;2079049;28;19909;-67
2022/03/20 03:49:02;;;;;;;;;;;6.10;59.50;;;;;;2077177;28;19909;-67
2022/03/20 03:50:03;;;;;;;;;;;6.20;59.60;;;;;;2078734;28;20422;-67
2022/03/20 03:51:03;;;;;;;;;;;6.10;59.40;;;;;;2077179;28;19943;-67
2022/03/20 03:52:05;;;;;;;;;;;6.20;59.40;;;;;;2077788;28;19912;-68
2022/03/20 03:53:08;;;;;;;;;;;6.20;59.50;;;;;;2077986;28;19909;-68
2022/03/20 03:54:08;;;;;;;;;;;6.20;59.00;;;;;;2075801;28;19909;-68
2022/03/20 03:55:08;;;;;;;;;;;6.20;59.00;;;;;;2078625;28;19975;-68
2022/03/20 03:56:09;;;;;;;;;;;6.10;58.90;;;;;;2079076;28;20284;-68
2022/03/20 03:57:09;;;;;;;;;;;6.20;59.00;;;;;;2078632;28;19923;-68
2022/03/20 03:58:12;;;;;;;;;;;6.20;59.00;;;;;;2079985;28;20237;-68
2022/03/20 03:59:13;;;;;;;;;;;6.20;58.80;;;;;;2075876;28;19905;-68
2022/03/20 04:00:14;;;;;;;;;;;6.10;58.70;;;;;;2076828;28;19912;-68
2022/03/20 04:01:14;;;;;;;;;;;6.10;58.60;;;;;;2077902;28;19905;-68
2022/03/20 04:02:15;;;;;;;;;;;6.10;58.60;;;;;;2078850;28;19905;-68
2022/03/20 04:03:16;;;;;;;;;;;6.10;58.50;;;;;;2075157;28;19916;-68
2022/03/20 04:04:16;;;;;;;;;;;6.10;58.70;;;;;;2074560;28;19909;-68
2022/03/20 04:05:20;;;;;;;;;;;6.10;58.40;;;;;;2079724;28;19905;-68
2022/03/20 04:06:20;;;;;;;;;;;6.10;58.40;;;;;;2077611;28;19912;-68
2022/03/20 04:07:21;;;;;;;;;;;6.10;58.40;;;;;;2078369;28;19912;-68
2022/03/20 04:08:22;;;;;;;;;;;6.10;58.70;;;;;;2078446;28;20241;-68
2022/03/20 04:09:22;;;;;;;;;;;6.10;58.60;;;;;;2076761;28;20424;-68
2022/03/20 04:10:23;;;;;;;;;;;6.10;58.20;;;;;;2078021;28;19920;-68
2022/03/20 04:11:24;;;;;;;;;;;6.10;58.20;;;;;;2075718;28;19921;-68
2022/03/20 04:12:24;;;;;;;;;;;6.10;58.00;;;;;;2077609;28;20007;-68
2022/03/20 04:13:24;;;;;;;;;;;6.10;58.30;;;;;;2078358;28;19911;-68
2022/03/20 04:14:25;;;;;;;;;;;6.10;58.10;;;;;;2078003;28;20012;-68
2022/03/20 04:15:26;;;;;;;;;;;6.10;58.00;;;;;;2079797;28;20654;-68
2022/03/20 04:16:26;;;;;;;;;;;6.10;57.70;;;;;;2076316;28;19917;-68
2022/03/20 04:17:26;;;;;;;;;;;6.10;57.70;;;;;;2079372;28;19915;-68
2022/03/20 04:18:27;;;;;;;;;;;6.10;57.90;;;;;;2078631;28;19953;-68
2022/03/20 04:19:27;;;;;;;;;;;6.10;57.90;;;;;;2080003;28;20443;-68
2022/03/20 04:20:28;;;;;;;;;;;6.10;57.80;;;;;;2074580;28;19912;-68
2022/03/20 04:21:29;;;;;;;;;;;6.10;57.60;;;;;;2076655;28;19959;-68
2022/03/20 04:22:30;;;;;;;;;;;6.10;57.80;;;;;;2075416;28;20011;-68
2022/03/20 04:23:45;;;;;;;;;;;6.10;57.80;;;;;;2074430;28;20337;-68
2022/03/20 04:24:46;;;;;;;;;;;6.10;57.70;;;;;;2079271;28;19920;-68
2022/03/20 04:25:47;;;;;;;;;;;6.10;57.80;;;;;;2079541;28;20034;-68
2022/03/20 04:26:47;;;;;;;;;;;6.10;58.00;;;;;;2078256;28;19916;-67
2022/03/20 04:27:48;;;;;;;;;;;6.10;57.60;;;;;;2077864;28;19979;-67
2022/03/20 04:28:49;;;;;;;;;;;6.10;57.60;;;;;;2075713;28;19949;-67
2022/03/20 04:29:49;;;;;;;;;;;6.10;57.60;;;;;;2075115;28;19959;-67
2022/03/20 04:30:50;;;;;;;;;;;6.10;58.20;;;;;;2076823;28;19913;-67
2022/03/20 04:31:54;;;;;;;;;;;6.10;57.60;;;;;;2076835;28;19905;-69
2022/03/20 04:32:55;;;;;;;;;;;6.00;57.50;;;;;;2075260;28;19906;-68
2022/03/20 04:33:56;;;;;;;;;;;6.10;57.70;;;;;;2077739;28;20040;-68
2022/03/20 04:34:56;;;;;;;;;;;6.00;57.40;;;;;;2078795;28;19963;-68
2022/03/20 04:35:57;;;;;;;;;;;6.00;57.70;;;;;;2078974;28;19947;-68
2022/03/20 04:36:58;;;;;;;;;;;6.10;57.90;;;;;;2080559;28;19945;-68
2022/03/20 04:37:58;;;;;;;;;;;6.00;57.50;;;;;;2077451;28;19926;-67
2022/03/20 04:39:00;;;;;;;;;;;6.00;57.60;;;;;;2075499;28;19909;-67
2022/03/20 04:40:01;;;;;;;;;;;6.00;57.60;;;;;;2079846;28;19913;-67
2022/03/20 04:41:01;;;;;;;;;;;6.00;57.50;;;;;;2079610;28;19913;-67
2022/03/20 04:42:02;;;;;;;;;;;6.00;57.40;;;;;;2077476;28;20276;-67
2022/03/20 04:43:03;;;;;;;;;;;6.00;57.50;;;;;;2077260;28;19913;-67
2022/03/20 04:44:03;;;;;;;;;;;6.00;57.50;;;;;;2079338;28;19912;-67
2022/03/20 04:45:04;;;;;;;;;;;6.00;57.50;;;;;;2078053;28;20333;-67
2022/03/20 04:46:05;;;;;;;;;;;6.00;57.60;;;;;;2076849;28;20363;-67
2022/03/20 04:58:29;;;;;;;;;;;6.00;57.70;;;;;;2078588;28;20482;-68
2022/03/20 04:59:03;;;;;;;;;;;5.90;57.40;;;;;;2073714;28;19905;-68
2022/03/20 05:00:05;;;;;;;;;;;5.90;57.40;;;;;;2079594;28;19905;-68
2022/03/20 05:01:06;;;;;;;;;;;5.90;57.00;;;;;;2078441;28;19988;-68
2022/03/20 05:02:06;;;;;;;;;;;5.90;57.00;;;;;;2078314;28;20670;-67
2022/03/20 05:03:07;;;;;;;;;;;5.90;57.30;;;;;;2076390;28;19964;-67
2022/03/20 05:04:07;;;;;;;;;;;5.90;57.30;;;;;;2077359;28;20268;-67
2022/03/20 05:05:10;;;;;;;;;;;5.90;57.90;;;;;;2079843;28;19992;-67
2022/03/20 05:06:11;;;;;;;;;;;5.90;57.30;;;;;;2076042;28;19996;-67
2022/03/20 05:07:11;;;;;;;;;;;5.90;57.30;;;;;;2080163;28;19923;-67
2022/03/20 05:08:12;;;;;;;;;;;5.90;57.40;;;;;;2076756;28;19971;-67
2022/03/20 05:13:19;;;;;;;;;;;5.90;57.60;;;;;;2077095;28;19917;-68
2022/03/20 05:14:19;;;;;;;;;;;5.90;57.50;;;;;;2075174;28;19956;-68
2022/03/20 05:15:20;;;;;;;;;;;5.90;57.50;;;;;;2075784;28;20451;-68
2022/03/20 05:16:20;;;;;;;;;;;5.90;57.50;;;;;;2077242;28;19906;-68
2022/03/20 05:17:21;;;;;;;;;;;5.90;57.30;;;;;;2076850;28;19905;-68
2022/03/20 05:18:21;;;;;;;;;;;5.90;57.30;;;;;;2075851;28;19945;-68
2022/03/20 05:19:22;;;;;;;;;;;5.90;57.20;;;;;;2074245;28;20444;-67
2022/03/20 05:20:23;;;;;;;;;;;5.90;57.20;;;;;;2076754;28;19914;-67
2022/03/20 05:21:24;;;;;;;;;;;5.90;57.40;;;;;;2076549;28;20275;-67
2022/03/20 05:22:24;;;;;;;;;;;5.90;56.70;;;;;;2077099;28;19905;-67
2022/03/20 05:23:25;;;;;;;;;;;5.90;56.70;;;;;;2074755;28;19905;-67
2022/03/20 05:24:25;;;;;;;;;;;5.80;56.80;;;;;;2077853;28;20051;-67
2022/03/20 05:25:28;;;;;;;;;;;5.80;56.80;;;;;;2077534;28;19909;-68
2022/03/20 05:26:28;;;;;;;;;;;5.80;57.10;;;;;;2075390;28;19915;-68
2022/03/20 05:27:29;;;;;;;;;;;5.80;56.70;;;;;;2074328;28;19971;-68
2022/03/20 05:28:29;;;;;;;;;;;5.80;56.80;;;;;;2078250;28;20332;-68
2022/03/20 05:29:30;;;;;;;;;;;5.80;56.90;;;;;;2076495;28;19912;-68
2022/03/20 05:30:30;;;;;;;;;;;5.80;56.70;;;;;;2078353;28;19931;-68
2022/03/20 05:31:32;;;;;;;;;;;5.80;56.70;;;;;;2079849;28;19911;-68
2022/03/20 05:32:35;;;;;;;;;;;5.80;56.70;;;;;;2077456;28;19959;-68
2022/03/20 05:33:35;;;;;;;;;;;5.80;56.70;;;;;;2076589;28;19912;-68
2022/03/20 05:34:36;;;;;;;;;;;5.80;56.80;;;;;;2079372;28;19917;-68
2022/03/20 05:35:38;;;;;;;;;;;5.70;56.70;;;;;;2076848;28;19905;-68
2022/03/20 05:36:38;;;;;;;;;;;5.70;56.60;;;;;;2077454;28;19955;-68
2022/03/20 05:37:39;;;;;;;;;;;5.70;56.50;;;;;;2077652;28;19909;-68
2022/03/20 05:38:40;;;;;;;;;;;5.70;56.60;;;;;;2077174;28;20265;-68
2022/03/20 05:39:40;;;;;;;;;;;5.70;56.70;;;;;;2076816;28;19915;-68
2022/03/20 05:40:42;;;;;;;;;;;5.70;56.50;;;;;;2077747;28;20431;-68
2022/03/20 05:41:46;;;;;;;;;;;5.70;56.40;;;;;;2076014;28;19905;-68
2022/03/20 05:42:46;;;;;;;;;;;5.60;56.70;;;;;;2079141;28;19912;-68
2022/03/20 05:43:46;;;;;;;;;;;5.60;56.50;;;;;;2080072;28;19909;-68
2022/03/20 05:44:47;;;;;;;;;;;5.60;56.60;;;;;;2077176;28;20003;-68
2022/03/20 05:45:48;;;;;;;;;;;5.60;56.60;;;;;;2073442;28;19909;-68
2022/03/20 05:46:49;;;;;;;;;;;5.60;56.70;;;;;;2078317;28;19948;-68
2022/03/20 05:47:50;;;;;;;;;;;5.60;56.60;;;;;;2076680;28;19905;-68
2022/03/20 05:48:52;;;;;;;;;;;5.60;56.60;;;;;;2076136;28;19932;-68
2022/03/20 05:49:54;;;;;;;;;;;5.60;56.80;;;;;;2079902;28;19962;-68
2022/03/20 05:50:55;;;;;;;;;;;5.60;56.90;;;;;;2078169;28;19967;-68
2022/03/20 05:51:55;;;;;;;;;;;5.60;56.70;;;;;;2076150;28;19913;-68
2022/03/20 05:52:55;;;;;;;;;;;5.60;56.70;;;;;;2077532;28;19910;-68
2022/03/20 05:53:59;;;;;;;;;;;5.50;56.90;;;;;;2077935;28;20607;-68
2022/03/20 05:55:00;;;;;;;;;;;5.50;56.90;;;;;;2077612;28;19975;-68
2022/03/20 05:58:39;;;;;;;;;;;5.50;57.00;;;;;;2077702;28;19913;-68
2022/03/20 05:59:39;;;;;;;;;;;5.50;56.70;;;;;;2074787;28;19917;-68
2022/03/20 06:00:41;;;;;;;;;;;5.50;56.90;;;;;;2077366;28;19909;-68
2022/03/20 06:01:42;;;;;;;;;;;5.40;56.90;;;;;;2077426;28;19995;-68
2022/03/20 06:02:43;;;;;;;;;;;5.40;57.00;;;;;;2077228;28;19975;-68
2022/03/20 06:03:44;;;;;;;;;;;5.40;56.90;;;;;;2076904;28;19992;-68
2022/03/20 06:04:44;;;;;;;;;;;5.40;57.20;;;;;;2079063;28;19909;-68
2022/03/20 06:05:47;;;;;;;;;;;5.40;56.90;;;;;;2076072;28;19956;-68
2022/03/20 06:06:48;;;;;;;;;;;5.40;57.00;;;;;;2073382;28;20365;-68
2022/03/20 06:07:52;;;;;;;;;;;5.40;56.80;;;;;;2077065;28;20440;-68
2022/03/20 06:08:52;;;;;;;;;;;5.40;56.80;;;;;;2076868;28;20389;-68
2022/03/20 06:09:53;;;;;;;;;;;5.40;56.70;;;;;;2077161;28;20330;-68
2022/03/20 06:10:54;;;;;;;;;;;5.40;56.80;;;;;;2076199;28;19920;-67
2022/03/20 06:11:56;;;;;;;;;;;5.40;56.90;;;;;;2074147;28;19917;-67
2022/03/20 06:12:56;;;;;;;;;;;5.40;56.70;;;;;;2073995;28;19910;-67
2022/03/20 06:13:58;;;;;;;;;;;5.40;56.60;;;;;;2074741;28;20012;-67
2022/03/20 06:14:58;;;;;;;;;;;5.40;56.50;;;;;;2077118;28;19916;-68
2022/03/20 06:15:59;;;;;;;;;;;5.30;56.60;;;;;;2073193;28;19909;-68
2022/03/20 06:16:59;;;;;;;;;;;5.40;56.60;;;;;;2076826;28;19929;-68
2022/03/20 06:18:03;;;;;;;;;;;5.30;56.20;;;;;;2075979;28;19913;-68
2022/03/20 06:19:06;;;;;;;;;;;5.30;56.50;;;;;;2077558;28;19967;-68
2022/03/20 06:20:08;;;;;;;;;;;5.40;56.90;;;;;;2076117;28;19905;-68
2022/03/20 06:21:09;;;;;;;;;;;5.40;57.30;;;;;;2076256;28;20436;-68
2022/03/20 06:22:09;;;;;;;;;;;5.40;56.60;;;;;;2075430;28;19983;-67
2022/03/20 06:23:10;;;;;;;;;;;5.30;56.50;;;;;;2073646;28;19913;-67
2022/03/20 06:24:10;;;;;;;;;;;5.30;56.90;;;;;;2075353;28;19909;-67
2022/03/20 06:25:13;;;;;;;;;;;5.30;56.50;;;;;;2080879;28;19913;-67
2022/03/20 06:26:14;;;;;;;;;;;5.30;56.80;;;;;;2078085;28;19921;-67
2022/03/20 06:27:14;;;;;;;;;;;5.40;56.60;;;;;;2076405;28;20558;-67